Centralia, Washington
Current Conditions -  °F | °C
As of 6:55 AM on Monday 22 Dec 2014 (Local Time) from KCLS Reporting Station
Broken Clouds Broken Clouds  
Wind Chill: 42°   Ceiling: 3300
Heat Index: 45°   Visibility: 10mi
Dew Point: 45°   Wind: 5mph
Humidity: 100%   Direction: 210°SSW
Pressure: 30.31"   Gusts: NA
Location:  46.73°N, 122.95°W
Report Text: KCLS 221455Z AUTO 21004KT 10SM BKN033 BKN039 07/07 A3031 RMK AO2
Loading
Personal Weather Stations






























Interactive Weather Map New forecast layout! Learn more

10-Day Weather Forecast

Advertisements
Track Severe Weather on mobile